Time;durP1;ratioP1;P1;durP2;ratioP2;P2;SDS_P1;SDS_P2;PMS_P1;PMS_P2;Temp;Humidity;BMP_temperature;BMP_pressure;BME280_temperature;BME280_humidity;BME280_pressure;Samples;Min_cycle;Max_cycle;Signal;HPM_P1;HPM_P2
2022/02/02 00:00:16;;;;;;;17.38;13.95;;;;;;;20.63;30.70;93497.94;4944199;28;96670;-43
2022/02/02 00:02:48;;;;;;;;;;;;;;;20.66;30.87;93499.84;4944632;28;96786;-42
2022/02/02 00:07:52;;;;;;;16.52;12.13;;;;;;;20.65;30.90;93498.28;4942018;28;97475;-47
2022/02/02 00:13:27;;;;;;;15.57;10.52;;;;;;;20.69;30.45;93504.47;4942710;28;97207;-40
2022/02/02 00:16:04;;;;;;;14.43;11.63;;;;;;;20.70;30.49;93499.75;4943978;28;99250;-42
2022/02/02 00:18:51;;;;;;;14.45;11.00;;;;;;;20.76;30.54;93497.28;4942870;28;99175;-42
2022/02/02 00:21:42;;;;;;;15.55;11.15;;;;;;;20.78;30.73;93494.91;4944492;28;96785;-40
2022/02/02 00:24:19;;;;;;;13.27;10.30;;;;;;;20.80;31.12;93492.50;4944547;28;98902;-45
2022/02/02 00:26:46;;;;;;;14.15;11.48;;;;;;;20.88;31.67;93482.91;4941895;28;97982;-43
2022/02/02 00:29:17;;;;;;;16.52;11.18;;;;;;;20.92;31.29;93494.53;4943780;28;99408;-42
2022/02/02 00:31:49;;;;;;;13.10;10.25;;;;;;;20.94;31.23;93480.41;4943886;28;96830;-45
2022/02/02 00:34:20;;;;;;;12.52;9.30;;;;;;;20.96;31.79;93484.25;4943255;28;96869;-42
2022/02/02 00:36:55;;;;;;;16.02;9.35;;;;;;;20.97;31.16;93474.81;4943472;28;99524;-42
2022/02/02 00:39:20;;;;;;;12.07;9.35;;;;;;;21.00;31.70;93476.69;4954926;28;99418;-43
2022/02/02 00:41:46;;;;;;;14.05;9.13;;;;;;;21.05;31.99;93485.63;4944087;28;96780;-41
2022/02/02 00:44:14;;;;;;;11.13;8.73;;;;;;;21.03;31.50;93492.31;4943023;28;96855;-40
2022/02/02 00:46:40;;;;;;;12.23;9.45;;;;;;;21.09;31.40;93483.56;4942196;28;99630;-41
2022/02/02 00:49:06;;;;;;;10.93;8.52;;;;;;;21.12;31.17;93490.94;4943752;28;99080;-41
2022/02/02 00:54:05;;;;;;;12.52;8.57;;;;;;;20.68;32.31;93496.66;4939352;28;96649;-47
2022/02/02 00:56:30;;;;;;;12.80;9.18;;;;;;;20.78;32.60;93489.41;4944420;28;98326;-50
2022/02/02 00:58:56;;;;;;;10.07;7.50;;;;;;;20.88;30.47;93480.16;4942873;28;99421;-47
2022/02/02 01:01:21;;;;;;;7.10;6.32;;;;;;;20.83;29.22;93458.72;4945604;28;96845;-47
2022/02/02 01:03:47;;;;;;;8.43;6.43;;;;;;;20.72;28.75;93462.47;4941304;28;97008;-51
2022/02/02 01:06:17;;;;;;;9.73;6.47;;;;;;;20.33;29.76;93450.41;4943092;28;99538;-45
2022/02/02 01:19:37;;;;;;;15.25;11.98;;;;;;;19.94;30.29;93441.88;4945694;28;96891;-47
2022/02/02 01:27:48;;;;;;;19.38;15.80;;;;;;;19.68;30.50;93429.84;4941162;28;97133;-47
2022/02/02 01:30:06;;;;;;;21.30;16.67;;;;;;;19.61;30.33;93428.00;4952188;28;98637;-50
2022/02/02 01:32:32;;;;;;;20.55;16.52;;;;;;;19.58;30.47;93414.41;4952969;28;96671;-49
2022/02/02 01:34:57;;;;;;;20.45;15.88;;;;;;;19.60;30.29;93417.50;4953167;28;97015;-49
2022/02/02 01:37:23;;;;;;;18.27;14.98;;;;;;;19.78;30.22;93415.13;4952232;28;99394;-49
2022/02/02 01:39:55;;;;;;;16.75;13.63;;;;;;;19.80;29.86;93410.00;4952516;28;99394;-46
2022/02/02 01:42:22;;;;;;;15.02;12.63;;;;;;;19.75;30.06;93394.06;4952493;28;97125;-50
2022/02/02 01:44:57;;;;;;;15.05;11.98;;;;;;;19.69;29.94;93398.53;4953035;28;96872;-47
2022/02/02 01:47:30;;;;;;;15.00;11.85;;;;;;;19.58;29.70;93389.75;4955782;28;99535;-52
2022/02/02 01:50:16;;;;;;;12.93;10.15;;;;;;;19.65;30.02;93392.34;4956011;28;99712;-48
2022/02/02 01:55:38;;;;;;;12.43;9.67;;;;;;;19.84;32.58;93391.53;4950913;28;96949;-51
2022/02/02 02:00:38;;;;;;;11.65;8.90;;;;;;;19.84;31.30;93386.03;4933418;28;97716;-47
2022/02/02 02:03:04;;;;;;;10.57;8.20;;;;;;;19.90;30.82;93374.63;4936283;28;96790;-50
2022/02/02 02:05:29;;;;;;;11.52;7.15;;;;;;;19.89;30.74;93373.84;4935774;28;96872;-53
2022/02/02 02:07:55;;;;;;;9.07;6.90;;;;;;;19.70;30.85;93367.19;4934914;28;99854;-46
2022/02/02 02:10:22;;;;;;;11.63;8.90;;;;;;;19.71;30.98;93357.78;4935648;28;99484;-52
2022/02/02 02:13:07;;;;;;;13.82;10.43;;;;;;;19.65;30.90;93354.75;4936238;28;96737;-49
2022/02/02 02:15:33;;;;;;;15.70;12.43;;;;;;;19.73;30.30;93355.38;4936668;28;97311;-49
2022/02/02 02:17:59;;;;;;;17.85;15.00;;;;;;;19.77;30.42;93356.06;4935263;28;99256;-48
2022/02/02 02:20:25;;;;;;;21.65;18.90;;;;;;;19.62;30.70;93357.59;4934905;28;99300;-47
2022/02/02 02:22:50;;;;;;;23.98;20.50;;;;;;;19.59;30.65;93356.44;4935686;28;96778;-48
2022/02/02 02:25:24;;;;;;;24.80;20.92;;;;;;;19.59;30.64;93355.69;4936327;28;96894;-47
2022/02/02 02:27:50;;;;;;;25.08;20.95;;;;;;;19.68;30.46;93358.63;4935336;28;99601;-44
2022/02/02 02:30:39;;;;;;;28.00;24.75;;;;;;;19.93;29.87;93354.59;4935685;28;99394;-52
2022/02/02 02:57:13;;;;;;;24.83;19.70;;;;;;;19.41;30.20;93356.81;4940382;28;96770;-50
2022/02/02 03:00:00;;;;;;;25.42;21.48;;;;;;;19.39;30.08;93360.00;4948436;28;99491;-48
2022/02/02 03:30:12;;;;;;;35.30;29.38;;;;;;;19.74;28.92;93351.44;4950843;28;96762;-44
2022/02/02 03:33:05;;;;;;;33.25;28.23;;;;;;;19.69;29.06;93354.69;4954576;28;99393;-44
2022/02/02 04:07:07;;;;;;;22.35;18.83;;;;;;;19.43;29.38;93340.75;4934699;28;96705;-49
2022/02/02 04:09:36;;;;;;;21.77;18.27;;;;;;;19.34;29.47;93343.28;4934370;28;96805;-46
2022/02/02 04:17:50;;;;;;;20.65;17.05;;;;;;;19.47;29.12;93338.72;4954020;28;98084;-45
2022/02/02 04:56:07;;;;;;;14.63;11.95;;;;;;;19.43;28.80;93357.19;4952029;28;96753;-48
2022/02/02 05:04:05;;;;;;;13.85;11.32;;;;;;;19.50;28.62;93353.50;4941271;28;96743;-46
2022/02/02 05:06:41;;;;;;;13.98;10.95;;;;;;;19.23;28.77;93352.47;4943235;28;97098;-48
2022/02/02 05:09:24;;;;;;;12.73;10.60;;;;;;;19.35;28.64;93361.25;4934989;28;99279;-51
2022/02/02 05:17:21;;;;;;;12.98;10.13;;;;;;;19.34;29.15;93374.19;4951350;28;96627;-48
2022/02/02 05:51:18;;;;;;;18.80;11.27;;;;;;;19.51;28.50;93377.75;4956069;28;97928;-45
2022/02/02 05:53:44;;;;;;;16.50;9.73;;;;;;;19.45;28.58;93387.66;4956052;28;99346;-50
2022/02/02 05:56:10;;;;;;;18.92;9.45;;;;;;;19.47;28.74;93395.44;4956251;28;96702;-48
2022/02/02 05:58:38;;;;;;;16.85;9.68;;;;;;;19.54;28.63;93382.38;4956509;28;96910;-46
2022/02/02 06:01:06;;;;;;;15.57;8.75;;;;;;;19.56;28.58;93395.63;4955961;28;97842;-51
2022/02/02 06:03:54;;;;;;;16.10;10.10;;;;;;;19.58;28.52;93406.19;4955710;28;99279;-48
2022/02/02 06:06:23;;;;;;;20.35;9.85;;;;;;;19.43;28.62;93398.25;4955395;28;96631;-46
2022/02/02 06:08:49;;;;;;;15.45;8.65;;;;;;;19.34;28.83;93395.31;4955625;28;96908;-48
2022/02/02 06:11:17;;;;;;;15.98;9.27;;;;;;;19.39;28.86;93397.56;4955629;28;99309;-48
2022/02/02 06:13:45;;;;;;;13.40;8.60;;;;;;;19.32;28.82;93414.13;4955764;28;99250;-50
2022/02/02 06:16:11;;;;;;;12.45;8.32;;;;;;;19.35;28.72;93424.22;4955880;28;96770;-51
2022/02/02 06:18:37;;;;;;;15.98;8.43;;;;;;;19.28;28.73;93427.09;4955858;28;96868;-48
2022/02/02 06:21:07;;;;;;;15.30;9.07;;;;;;;19.23;28.86;93422.88;4955381;28;99990;-51
2022/02/02 06:23:38;;;;;;;11.02;8.52;;;;;;;19.22;28.71;93424.09;4955795;28;98287;-47
2022/02/02 06:26:04;;;;;;;13.25;8.73;;;;;;;19.20;28.82;93424.47;4971667;28;97723;-50
2022/02/02 06:28:34;;;;;;;13.65;8.77;;;;;;;19.25;28.73;93425.97;4955590;28;96932;-48
2022/02/02 06:31:03;;;;;;;12.38;7.65;;;;;;;19.31;28.37;93429.00;4954874;28;99575;-52
2022/02/02 06:33:34;;;;;;;13.70;8.23;;;;;;;19.33;28.64;93432.09;4955302;28;99220;-49
2022/02/02 06:36:04;;;;;;;11.43;8.30;;;;;;;19.35;28.49;93440.66;4955537;28;96805;-48
2022/02/02 06:38:30;;;;;;;13.65;8.38;;;;;;;19.20;28.72;93440.16;4955220;28;96912;-50
2022/02/02 06:40:57;;;;;;;11.63;8.50;;;;;;;19.28;28.44;93433.34;4955087;28;99699;-49
2022/02/02 06:43:23;;;;;;;11.80;8.45;;;;;;;19.19;28.76;93433.88;4955042;28;99459;-49
2022/02/02 06:45:49;;;;;;;10.23;8.13;;;;;;;19.29;28.42;93442.31;4955416;28;96573;-50
2022/02/02 06:48:14;;;;;;;13.93;8.13;;;;;;;19.26;28.66;93431.03;4938470;28;96904;-52
2022/02/02 06:50:42;;;;;;;12.63;8.57;;;;;;;19.42;28.48;93437.03;4954754;28;100084;-48
2022/02/02 06:56:01;;;;;;;11.38;8.38;;;;;;;19.37;28.42;93441.00;4986733;28;96889;-47
2022/02/02 06:59:05;;;;;;;11.05;7.60;;;;;;;19.32;28.64;93430.53;4955293;28;97140;-48
2022/02/02 07:01:48;;;;;;;11.00;7.47;;;;;;;19.33;28.41;93437.56;4954024;28;99700;-49
2022/02/02 07:04:47;;;;;;;11.68;7.97;;;;;;;19.40;28.43;93437.44;4955107;28;99358;-52
2022/02/02 07:07:31;;;;;;;10.15;7.57;;;;;;;19.36;28.35;93437.50;4953792;28;96821;-49
2022/02/02 07:10:29;;;;;;;11.50;7.53;;;;;;;19.38;28.03;93445.28;4955393;28;96634;-50
2022/02/02 07:28:50;;;;;;;9.48;7.20;;;;;;;19.49;28.41;93439.59;4968880;28;96867;-48
2022/02/02 07:33:51;;;;;;;9.85;7.32;;;;;;;19.38;28.31;93440.59;4953713;28;97936;-48
2022/02/02 07:36:29;;;;;;;8.98;6.90;;;;;;;19.43;28.17;93452.25;4953159;28;99312;-48
2022/02/02 07:39:10;;;;;;;10.07;7.20;;;;;;;19.41;28.24;93444.44;4954463;28;96678;-50
2022/02/02 07:41:36;;;;;;;11.07;7.57;;;;;;;19.49;28.23;93445.88;4955210;28;96696;-48
2022/02/02 07:44:17;;;;;;;9.23;6.90;;;;;;;19.38;28.20;93443.34;4952053;28;99838;-49
2022/02/02 07:46:51;;;;;;;8.88;6.70;;;;;;;19.33;28.18;93454.00;4951726;28;99641;-49
2022/02/02 07:49:17;;;;;;;9.05;7.07;;;;;;;19.23;28.31;93445.53;4951569;28;97176;-48
2022/02/02 07:51:42;;;;;;;11.27;7.28;;;;;;;19.49;28.17;93456.81;4951745;28;97378;-46
2022/02/02 07:54:18;;;;;;;9.30;6.65;;;;;;;19.47;28.10;93447.47;4951354;28;99791;-49
2022/02/02 07:56:45;;;;;;;9.88;6.75;;;;;;;19.51;28.02;93454.44;4981419;28;99401;-47
2022/02/02 07:59:18;;;;;;;9.68;6.82;;;;;;;19.55;27.77;93444.19;4953376;28;97095;-48
2022/02/02 08:01:45;;;;;;;9.77;6.97;;;;;;;19.55;27.89;93441.44;4954128;28;96815;-50
2022/02/02 08:04:12;;;;;;;9.65;7.07;;;;;;;19.48;28.01;93432.56;4954037;28;100011;-49
2022/02/02 08:06:40;;;;;;;8.52;6.72;;;;;;;19.57;27.80;93445.72;4954060;28;99301;-51
2022/02/02 08:09:07;;;;;;;8.15;6.57;;;;;;;19.59;27.88;93426.91;4953860;28;96874;-50
2022/02/02 08:11:35;;;;;;;8.85;6.55;;;;;;;19.61;27.85;93430.00;4954206;28;96904;-49
2022/02/02 08:14:02;;;;;;;9.27;6.82;;;;;;;19.63;27.82;93427.59;4953396;28;99850;-50
2022/02/02 08:16:29;;;;;;;7.93;6.57;;;;;;;19.64;27.44;93426.41;4953440;28;99283;-48
2022/02/02 08:18:55;;;;;;;8.50;6.63;;;;;;;19.72;27.50;93430.56;4953926;28;96940;-50
2022/02/02 08:21:21;;;;;;;22.17;16.48;;;;;;;19.70;27.83;93427.47;4954111;28;96944;-50
2022/02/02 08:23:47;;;;;;;19.60;16.40;;;;;;;19.70;27.80;93427.47;4953359;28;98782;-48
2022/02/02 08:26:15;;;;;;;21.25;15.68;;;;;;;19.60;28.12;93422.97;4953214;28;98572;-46
2022/02/02 08:28:44;;;;;;;18.75;14.90;;;;;;;19.58;28.02;93431.59;4953863;28;96649;-47
2022/02/02 08:31:09;;;;;;;19.00;14.20;;;;;;;19.62;27.96;93437.03;4953727;28;96940;-48
2022/02/02 08:33:38;;;;;;;19.38;15.10;;;;;;;19.68;27.72;93440.81;4953236;28;99456;-49
2022/02/02 08:36:13;;;;;;;16.92;13.68;;;;;;;19.58;27.83;93437.06;4953217;28;99331;-47
2022/02/02 08:39:00;;;;;;;16.13;12.07;;;;;;;19.66;27.71;93440.47;4953020;28;96960;-47
2022/02/02 08:44:05;;;;;;;16.33;13.00;;;;;;;19.62;27.67;93420.59;4953567;28;97805;-46
2022/02/02 08:46:34;;;;;;;16.45;12.43;;;;;;;19.61;27.64;93438.22;4953348;28;99349;-50
2022/02/02 08:49:02;;;;;;;14.48;10.77;;;;;;;19.60;27.79;93433.94;4953873;28;96779;-51
2022/02/02 08:51:32;;;;;;;14.23;10.82;;;;;;;19.61;27.72;93433.50;4953631;28;96883;-49
2022/02/02 08:59:02;;;;;;;12.38;9.65;;;;;;;19.79;27.30;93441.34;4953626;28;96724;-51
2022/02/02 09:01:31;;;;;;;14.65;10.40;;;;;;;19.77;27.36;93419.06;4953540;28;96904;-50
2022/02/02 09:06:41;;;;;;;13.25;9.88;;;;;;;19.85;27.26;93427.94;4952807;28;97050;-54
2022/02/02 09:23:25;;;;;;;12.70;9.05;;;;;;;20.24;26.96;93436.53;4952623;28;96881;-50
2022/02/02 09:25:16;;;;;;;10.63;8.27;;;;;;;20.31;26.80;93435.59;4952267;28;98582;-47
2022/02/02 09:35:38;;;;;;;11.02;8.88;;;;;;;20.35;26.48;93442.53;4952847;28;97890;-50
2022/02/02 09:38:03;;;;;;;11.05;8.00;;;;;;;20.41;26.61;93442.81;4951999;28;99282;-49
2022/02/02 09:43:19;;;;;;;12.23;8.43;;;;;;;20.37;26.83;93444.84;4951672;28;96836;-50
2022/02/02 09:45:47;;;;;;;10.95;8.40;;;;;;;20.39;26.73;93435.00;4952408;28;99574;-53
2022/02/02 09:48:23;;;;;;;9.88;7.65;;;;;;;20.41;26.66;93440.06;4952877;28;99159;-49
2022/02/02 09:50:53;;;;;;;11.13;8.13;;;;;;;20.36;26.65;93427.63;4953011;28;96743;-51
2022/02/02 09:53:32;;;;;;;11.50;7.95;;;;;;;20.34;26.76;93435.50;4953004;28;96692;-50
2022/02/02 09:56:21;;;;;;;9.48;6.88;;;;;;;20.36;26.57;93438.59;4952041;28;99408;-47
2022/02/02 10:05:08;;;;;;;10.57;7.53;;;;;;;20.29;26.50;93416.84;4951711;28;97002;-52
2022/02/02 10:15:44;;;;;;;9.32;6.97;;;;;;;20.01;26.97;93424.50;4955924;28;96884;-48
2022/02/02 10:18:15;;;;;;;8.82;6.53;;;;;;;19.92;26.98;93416.06;4955483;28;99062;-46
2022/02/02 10:20:41;;;;;;;9.35;6.85;;;;;;;19.87;26.92;93425.53;4955598;28;99856;-51
2022/02/02 10:23:07;;;;;;;8.85;6.85;;;;;;;19.85;26.93;93417.72;4955223;28;96724;-45
2022/02/02 10:25:35;;;;;;;8.50;6.43;;;;;;;19.88;26.93;93420.81;4955708;28;96982;-48
2022/02/02 10:28:17;;;;;;;9.70;6.95;;;;;;;19.84;27.16;93416.19;4955454;28;99459;-46
2022/02/02 10:30:47;;;;;;;8.45;6.57;;;;;;;19.89;26.98;93417.69;4955504;28;99337;-49
2022/02/02 10:33:20;;;;;;;8.98;6.90;;;;;;;19.84;26.86;93416.19;4955578;28;96754;-52
2022/02/02 10:35:49;;;;;;;9.18;6.57;;;;;;;19.83;27.00;93414.66;4955687;28;96881;-48
2022/02/02 10:38:18;;;;;;;8.20;6.50;;;;;;;19.80;27.02;93420.97;4954770;28;99287;-48
2022/02/02 10:40:52;;;;;;;8.77;6.20;;;;;;;19.77;26.95;93421.81;4955343;28;99551;-51
2022/02/02 10:43:35;;;;;;;8.85;7.22;;;;;;;19.72;27.03;93403.16;4955526;28;96801;-46
2022/02/02 10:46:16;;;;;;;8.82;6.43;;;;;;;19.77;27.07;93416.34;4955683;28;96752;-46
2022/02/02 10:48:47;;;;;;;10.43;6.57;;;;;;;19.74;27.17;93422.66;4954524;28;99428;-49
2022/02/02 10:51:22;;;;;;;8.95;6.55;;;;;;;19.80;27.06;93412.75;4955104;28;99209;-51
2022/02/02 10:56:50;;;;;;;7.72;6.22;;;;;;;19.88;27.10;93416.13;4952758;28;96776;-50
2022/02/02 11:07:38;;;;;;;9.60;6.65;;;;;;;19.99;26.66;93405.75;4952866;28;96819;-51
2022/02/02 11:10:05;;;;;;;10.23;6.28;;;;;;;20.08;26.49;93401.63;4932244;28;99650;-49
2022/02/02 11:12:32;;;;;;;8.43;6.68;;;;;;;20.13;26.44;93399.16;4953623;28;99575;-52
2022/02/02 11:15:24;;;;;;;10.30;7.05;;;;;;;20.11;26.57;93403.50;4969321;28;96903;-52
2022/02/02 11:18:10;;;;;;;8.90;6.18;;;;;;;20.13;26.51;93393.69;4954160;28;96950;-47
2022/02/02 11:20:38;;;;;;;8.05;6.32;;;;;;;20.16;26.72;93402.25;4954636;28;99405;-51
2022/02/02 11:23:05;;;;;;;8.00;6.18;;;;;;;20.09;26.79;93398.47;4953443;28;99808;-49
2022/02/02 11:25:33;;;;;;;10.35;6.05;;;;;;;20.19;26.55;93399.41;4955006;28;96691;-45
2022/02/02 11:28:00;;;;;;;9.52;6.15;;;;;;;20.26;26.54;93401.25;4954787;28;96923;-50
2022/02/02 11:30:25;;;;;;;8.40;5.65;;;;;;;20.29;26.61;93383.94;4954522;28;99566;-49
2022/02/02 11:32:55;;;;;;;8.13;6.20;;;;;;;20.29;26.55;93378.44;4954689;28;99086;-48
2022/02/02 11:38:18;;;;;;;8.98;6.10;;;;;;;20.49;26.22;93375.63;4954338;28;96917;-48
2022/02/02 11:43:46;;;;;;;8.07;5.55;;;;;;;20.70;26.18;93374.31;4954486;28;97652;-50
2022/02/02 11:46:20;;;;;;;8.15;5.80;;;;;;;20.77;26.13;93361.63;4954502;28;96689;-49
2022/02/02 11:48:59;;;;;;;8.45;6.25;;;;;;;20.90;26.02;93365.22;4984122;28;96903;-49
2022/02/02 11:51:47;;;;;;;8.30;5.88;;;;;;;20.92;26.10;93362.03;4954081;28;98446;-49
2022/02/02 11:54:14;;;;;;;9.13;6.07;;;;;;;20.99;25.93;93357.13;4954136;28;99147;-51
2022/02/02 11:56:57;;;;;;;8.10;5.70;;;;;;;21.02;25.89;93353.50;4954250;28;96715;-49
2022/02/02 11:59:46;;;;;;;8.27;5.75;;;;;;;21.13;25.96;93361.47;4954632;28;96899;-49
2022/02/02 12:02:19;;;;;;;8.23;6.07;;;;;;;21.17;25.80;93358.63;4954005;28;99904;-52
2022/02/02 12:07:56;;;;;;;6.72;5.70;;;;;;;21.20;25.84;93366.00;4952616;28;96699;-48
2022/02/02 12:27:55;;;;;;;8.90;5.60;;;;;;;21.39;25.77;93360.78;4951815;28;96901;-49
2022/02/02 12:56:58;;;;;;;7.35;5.25;;;;;;;21.67;25.59;93369.44;4953462;28;97895;-50
2022/02/02 13:02:15;;;;;;;7.45;5.25;;;;;;;21.72;25.60;93371.66;4952143;28;96716;-52
2022/02/02 13:04:42;;;;;;;6.60;5.32;;;;;;;21.78;25.54;93361.66;4953471;28;96761;-45
2022/02/02 13:07:18;;;;;;;8.10;6.05;;;;;;;21.88;25.39;93368.03;4953033;28;99650;-51
2022/02/02 13:09:47;;;;;;;6.65;5.50;;;;;;;21.94;25.28;93368.28;4952748;28;99239;-51
2022/02/02 13:12:39;;;;;;;6.95;5.35;;;;;;;21.97;25.23;93364.66;4984433;28;96637;-53
2022/02/02 13:15:21;;;;;;;7.22;5.20;;;;;;;21.95;25.30;93362.31;4954078;28;97427;-47
2022/02/02 13:20:34;;;;;;;6.88;5.60;;;;;;;21.83;25.47;93361.09;4980600;28;97607;-47
2022/02/02 13:23:12;;;;;;;7.93;5.70;;;;;;;21.80;25.31;93359.22;4953356;28;96735;-53
2022/02/02 13:25:40;;;;;;;6.65;5.18;;;;;;;21.84;25.63;93362.66;4953327;28;96889;-52
2022/02/02 13:28:08;;;;;;;7.55;5.57;;;;;;;21.89;25.24;93353.88;4952436;28;97730;-52
2022/02/02 13:30:43;;;;;;;7.93;5.72;;;;;;;21.89;25.34;93359.34;4952703;28;99373;-54
2022/02/02 13:33:16;;;;;;;6.32;5.00;;;;;;;21.91;25.47;93356.94;4983286;28;96840;-52
2022/02/02 13:35:54;;;;;;;7.43;5.50;;;;;;;21.96;25.29;93357.59;4953090;28;96755;-52
2022/02/02 13:38:42;;;;;;;7.32;5.60;;;;;;;21.97;25.50;93361.91;4952098;28;100306;-51
2022/02/02 13:44:07;;;;;;;7.13;5.50;;;;;;;21.98;25.38;93363.44;4955460;28;96607;-48
2022/02/02 13:47:00;;;;;;;8.88;5.78;;;;;;;22.00;25.37;93364.53;4956753;28;96868;-52
2022/02/02 13:55:06;;;;;;;8.00;5.53;;;;;;;22.03;25.23;93360.16;4955227;28;96570;-49
2022/02/02 14:05:19;;;;;;;6.63;5.38;;;;;;;22.35;25.04;93363.84;4956406;28;96767;-50
2022/02/02 14:08:12;;;;;;;7.10;5.20;;;;;;;22.29;24.98;93357.38;4955437;28;98488;-51
2022/02/02 14:10:57;;;;;;;6.97;5.22;;;;;;;22.29;25.14;93368.38;4955662;28;99537;-50
2022/02/02 14:32:33;;;;;;;6.72;5.38;;;;;;;21.58;25.76;93365.31;4955204;28;97196;-51
2022/02/02 14:35:01;;;;;;;7.80;5.22;;;;;;;21.48;25.45;93358.19;4955503;28;99238;-53
2022/02/02 14:37:36;;;;;;;7.00;5.53;;;;;;;21.51;25.86;93362.78;4954557;28;96957;-54
2022/02/02 14:40:13;;;;;;;5.97;5.00;;;;;;;21.53;26.10;93371.34;4956075;28;96795;-50
2022/02/02 14:42:40;;;;;;;6.80;4.60;;;;;;;21.33;27.15;93364.06;4955348;28;99134;-54
2022/02/02 14:45:11;;;;;;;5.20;4.47;;;;;;;21.47;27.38;93370.38;4955275;28;99420;-51
2022/02/02 14:47:41;;;;;;;8.40;6.38;;;;;;;21.28;25.81;93372.84;4955438;28;96560;-50
2022/02/02 14:50:31;;;;;;;8.70;5.10;;;;;;;21.22;26.84;93369.06;4955644;28;96710;-50
2022/02/02 15:27:32;;;;;;;7.88;6.50;;;;;;;21.09;27.07;93377.28;4953350;28;97769;-50
2022/02/02 15:30:10;;;;;;;8.65;6.45;;;;;;;21.10;26.90;93389.00;4952476;28;96842;-53
2022/02/02 15:32:36;;;;;;;10.07;6.40;;;;;;;21.18;26.90;93387.63;4951471;28;97409;-56
2022/02/02 15:35:02;;;;;;;6.18;5.53;;;;;;;21.11;26.83;93390.56;4951960;28;99752;-54
2022/02/02 15:40:02;;;;;;;6.85;6.07;;;;;;;21.01;26.71;93400.63;4952841;28;97019;-56
2022/02/02 15:42:53;;;;;;;6.72;5.63;;;;;;;21.12;26.81;93401.13;4953890;28;96766;-55
2022/02/02 15:58:36;;;;;;;6.75;5.20;;;;;;;21.02;26.88;93416.66;4954604;28;97668;-50
2022/02/02 16:03:45;;;;;;;5.72;4.50;;;;;;;20.92;26.78;93422.41;4952760;28;96752;-55
2022/02/02 16:08:40;;;;;;;4.90;4.10;;;;;;;21.03;26.75;93423.69;4953734;28;98085;-57
2022/02/02 16:13:42;;;;;;;5.65;4.10;;;;;;;20.98;26.72;93423.44;4951933;28;96678;-57
2022/02/02 16:16:23;;;;;;;5.38;4.32;;;;;;;21.07;26.61;93428.31;4953927;28;99559;-54
2022/02/02 16:19:04;;;;;;;4.53;4.13;;;;;;;21.05;26.60;93430.72;4953957;28;99308;-54
2022/02/02 16:33:04;;;;;;;3.85;3.47;;;;;;;20.97;26.47;93436.38;4950500;28;96808;-53
2022/02/02 16:37:58;;;;;;;5.20;3.63;;;;;;;20.90;26.66;93446.78;4952593;28;97876;-58
2022/02/02 16:40:31;;;;;;;3.60;3.30;;;;;;;20.92;26.54;93450.63;4953228;28;99452;-51
2022/02/02 16:43:13;;;;;;;4.03;3.42;;;;;;;20.87;26.53;93453.91;4953964;28;96677;-50
2022/02/02 16:46:05;;;;;;;3.50;3.20;;;;;;;20.90;26.61;93453.06;4953876;28;96773;-56
2022/02/02 16:48:31;;;;;;;;;;;;;;;20.91;26.50;93454.56;4951658;28;99654;-56
2022/02/02 16:50:59;;;;;;;3.63;3.13;;;;;;;20.78;26.37;93453.75;4953729;28;98698;-55
2022/02/02 16:53:32;;;;;;;3.38;2.83;;;;;;;20.87;26.51;93456.66;4953593;28;96743;-53
2022/02/02 17:33:26;;;;;;;2.50;2.30;;;;;;;20.65;26.41;93492.81;4953018;28;97607;-53
2022/02/02 17:38:31;;;;;;;2.50;2.30;;;;;;;20.66;26.47;93488.06;4952556;28;96943;-51
2022/02/02 17:41:14;;;;;;;2.95;2.50;;;;;;;20.66;26.40;93477.09;4952642;28;99567;-55
2022/02/02 17:58:24;;;;;;;2.90;2.30;;;;;;;20.51;26.34;93493.13;4952562;28;96711;-57
2022/02/02 18:03:45;;;;;;;2.50;2.30;;;;;;;20.56;26.21;93495.34;4952355;28;97913;-56
2022/02/02 18:18:56;;;;;;;2.53;2.08;;;;;;;20.52;26.17;93511.91;4952442;28;96791;-54
2022/02/02 18:21:23;;;;;;;2.38;2.17;;;;;;;20.54;26.23;93514.22;4952697;28;96778;-56
2022/02/02 18:47:15;;;;;;;2.10;1.90;;;;;;;20.47;26.03;93542.59;4953774;28;96982;-51
2022/02/02 20:11:09;;;;;;;1.75;1.65;;;;;;;20.33;25.83;93609.44;4950419;28;97288;-58
2022/02/02 20:13:36;;;;;;;1.92;1.73;;;;;;;20.33;25.90;93608.69;4953357;28;99620;-54
2022/02/02 20:16:02;;;;;;;2.22;2.03;;;;;;;20.34;25.85;93611.00;4953887;28;96723;-49
2022/02/02 20:18:30;;;;;;;2.20;2.00;;;;;;;20.30;25.82;93610.31;4954159;28;96880;-55
2022/02/02 20:20:58;;;;;;;2.33;2.13;;;;;;;20.34;25.95;93605.50;4953509;28;99416;-56
2022/02/02 20:23:24;;;;;;;1.67;1.58;;;;;;;20.32;25.90;93601.66;4953800;28;99544;-57
2022/02/02 20:25:53;;;;;;;2.58;2.15;;;;;;;20.35;25.75;93601.56;4953920;28;97033;-58
2022/02/02 20:28:19;;;;;;;2.00;1.90;;;;;;;20.35;25.75;93604.31;4953878;28;96897;-54
2022/02/02 20:30:44;;;;;;;2.10;1.90;;;;;;;20.36;25.93;93605.88;4952775;28;100061;-53
2022/02/02 20:33:10;;;;;;;2.30;2.10;;;;;;;20.32;25.60;93605.16;4953394;28;99445;-59
2022/02/02 20:35:35;;;;;;;2.08;1.90;;;;;;;20.31;25.83;93606.38;4953694;28;96796;-57
2022/02/02 20:38:01;;;;;;;2.05;1.85;;;;;;;20.24;25.90;93609.25;4953218;28;97022;-56
2022/02/02 20:40:26;;;;;;;1.83;1.73;;;;;;;20.27;25.81;93600.19;4953057;28;99666;-57
2022/02/02 20:43:00;;;;;;;2.35;2.15;;;;;;;20.18;26.07;93603.47;4953256;28;99221;-54
2022/02/02 21:04:50;;;;;;;2.03;1.90;;;;;;;20.17;25.96;93601.94;4951757;28;96890;-50
2022/02/02 21:14:42;;;;;;;2.00;1.80;;;;;;;20.23;25.81;93604.97;4953512;28;97643;-50
2022/02/02 21:17:17;;;;;;;1.88;1.70;;;;;;;20.22;25.90;93597.94;4953389;28;96693;-52
2022/02/02 21:22:14;;;;;;;1.93;1.83;;;;;;;20.23;25.99;93594.00;4952278;28;97916;-54
2022/02/02 21:29:38;;;;;;;1.70;1.60;;;;;;;20.08;26.12;93605.25;4953599;28;96972;-52
2022/02/02 21:32:04;;;;;;;1.60;1.50;;;;;;;20.25;25.91;93597.09;4952717;28;99818;-54
2022/02/02 21:34:29;;;;;;;2.05;1.70;;;;;;;20.28;25.88;93607.22;4952898;28;98123;-54
2022/02/02 21:37:00;;;;;;;2.85;2.00;;;;;;;20.23;25.77;93604.97;4952570;28;96807;-54
2022/02/02 21:39:28;;;;;;;2.03;1.70;;;;;;;20.25;25.89;93613.56;4953452;28;96810;-50
2022/02/02 21:41:54;;;;;;;1.73;1.63;;;;;;;20.23;25.92;93607.72;4952709;28;100254;-54
2022/02/02 21:44:19;;;;;;;2.10;1.83;;;;;;;20.25;25.89;93602.59;4952495;28;99129;-55
2022/02/02 21:46:45;;;;;;;2.53;2.17;;;;;;;20.19;25.90;93621.47;4952439;28;96621;-53
2022/02/02 21:49:16;;;;;;;1.70;1.60;;;;;;;20.25;25.89;93619.03;4953077;28;96960;-54
2022/02/02 21:51:53;;;;;;;1.80;1.70;;;;;;;20.20;25.97;93622.28;4952577;28;99645;-54
2022/02/02 21:54:19;;;;;;;1.95;1.80;;;;;;;20.26;25.87;93628.81;4952561;28;99440;-51
2022/02/02 21:56:44;;;;;;;1.67;1.55;;;;;;;20.30;25.60;93621.28;4952864;28;96660;-53
2022/02/02 21:59:09;;;;;;;2.25;1.60;;;;;;;20.33;25.57;93636.88;4953019;28;96897;-53
2022/02/02 22:01:35;;;;;;;1.85;1.75;;;;;;;20.05;25.90;93628.00;4953187;28;97830;-51
2022/02/02 22:04:00;;;;;;;3.63;1.88;;;;;;;19.99;26.16;93629.69;4956223;28;99419;-54
2022/02/02 22:06:26;;;;;;;3.00;1.60;;;;;;;19.80;26.59;93634.69;4955980;28;96688;-51
2022/02/02 22:08:51;;;;;;;4.75;1.50;;;;;;;20.00;26.46;93633.97;4956123;28;96909;-57
2022/02/02 22:11:17;;;;;;;3.45;1.58;;;;;;;20.12;26.26;93616.91;4955361;28;97992;-53
2022/02/02 22:13:47;;;;;;;3.03;1.90;;;;;;;20.11;26.34;93618.13;4955826;28;99170;-51
2022/02/02 22:16:18;;;;;;;5.00;2.95;;;;;;;20.06;26.31;93629.56;4955768;28;96742;-51
2022/02/02 22:18:45;;;;;;;12.20;8.20;;;;;;;20.03;26.36;93635.88;4956012;28;96785;-51
2022/02/02 22:21:11;;;;;;;14.27;10.38;;;;;;;20.00;26.15;93625.75;4955424;28;100061;-50
2022/02/02 22:23:40;;;;;;;21.55;14.23;;;;;;;20.01;26.51;93626.56;4955491;28;98697;-52
2022/02/02 22:26:06;;;;;;;19.02;15.30;;;;;;;19.92;26.60;93627.09;4955709;28;96707;-51
2022/02/02 22:28:31;;;;;;;17.10;13.00;;;;;;;19.93;26.58;93625.88;4956120;28;97012;-51
2022/02/02 22:30:57;;;;;;;15.18;9.98;;;;;;;19.94;26.80;93632.91;4955589;28;97928;-49
2022/02/02 22:33:22;;;;;;;10.40;8.07;;;;;;;20.01;26.35;93627.31;4955405;28;99824;-50
2022/02/02 22:35:47;;;;;;;9.30;7.28;;;;;;;19.94;26.75;93633.72;4950933;28;96991;-52
2022/02/02 22:38:13;;;;;;;9.93;6.80;;;;;;;19.92;26.63;93647.06;4942850;28;96997;-51
2022/02/02 22:40:40;;;;;;;11.55;8.57;;;;;;;19.90;26.46;93643.16;4944968;28;97940;-56